Time;durP1;ratioP1;P1;durP2;ratioP2;P2;SDS_P1;SDS_P2;PMS_P1;PMS_P2;Temp;Humidity;BMP_temperature;BMP_pressure;BME280_temperature;BME280_humidity;BME280_pressure;Samples;Min_cycle;Max_cycle;Signal;HPM_P1;HPM_P2
2023/04/06 00:00:40;;;;;;;;;27.75;27.00;;;;;;;;6488167;31;9024;-50
2023/04/06 00:06:42;;;;;;;;;31.75;23.50;;;;;;;;6487933;39;8964;-51
2023/04/06 00:12:45;;;;;;;;;39.25;31.75;;;;;;;;6487791;39;9073;-50
2023/04/06 00:18:47;;;;;;;;;26.75;26.75;;;;;;;;6487187;39;8878;-49
2023/04/06 00:24:50;;;;;;;;;32.25;31.25;;;;;;;;6487776;39;8860;-51
2023/04/06 00:30:55;;;;;;;;;37.75;33.25;;;;;;;;6488416;39;9450;-48
2023/04/06 00:36:58;;;;;;;;;32.25;31.50;;;;;;;;6487508;39;8889;-49
2023/04/06 00:43:00;;;;;;;;;37.75;32.50;;;;;;;;6487801;39;9669;-50
2023/04/06 00:49:03;;;;;;;;;40.25;34.75;;;;;;;;6488234;31;9662;-49
2023/04/06 00:55:07;;;;;;;;;38.25;32.00;;;;;;;;6486292;46;8922;-47
2023/04/06 01:01:15;;;;;;;;;33.25;32.50;;;;;;;;6487065;31;9533;-50
2023/04/06 01:07:18;;;;;;;;;44.50;35.25;;;;;;;;6488142;31;8878;-50
2023/04/06 01:13:37;;;;;;;;;45.50;38.75;;;;;;;;6486428;39;8972;-48
2023/04/06 01:19:45;;;;;;;;;41.50;40.00;;;;;;;;6486740;39;8855;-46
2023/04/06 01:25:55;;;;;;;;;39.75;36.75;;;;;;;;6486917;39;8896;-49
2023/04/06 01:31:59;;;;;;;;;48.50;43.25;;;;;;;;6486492;39;8918;-50
2023/04/06 01:38:06;;;;;;;;;38.75;31.00;;;;;;;;6487171;31;8952;-49
2023/04/06 01:44:10;;;;;;;;;48.25;39.50;;;;;;;;6486462;39;8933;-50
2023/04/06 01:50:15;;;;;;;;;42.00;37.00;;;;;;;;6486956;39;8928;-51
2023/04/06 01:56:20;;;;;;;;;43.50;36.25;;;;;;;;6486266;47;8887;-51
2023/04/06 02:02:37;;;;;;;;;53.00;44.75;;;;;;;;6486362;39;8917;-50
2023/04/06 02:08:45;;;;;;;;;39.25;37.25;;;;;;;;6485985;39;9513;-47
2023/04/06 02:14:49;;;;;;;;;49.50;41.25;;;;;;;;6486439;39;8912;-51
2023/04/06 02:20:51;;;;;;;;;46.25;37.50;;;;;;;;6486776;39;9515;-48
2023/04/06 02:26:54;;;;;;;;;37.25;35.00;;;;;;;;6488148;39;8962;-50
2023/04/06 02:32:56;;;;;;;;;46.75;40.25;;;;;;;;6488203;39;9623;-50
2023/04/06 02:39:03;;;;;;;;;48.25;43.25;;;;;;;;6487483;46;9003;-48
2023/04/06 02:45:07;;;;;;;;;41.75;38.50;;;;;;;;6488931;39;8846;-49
2023/04/06 02:51:15;;;;;;;;;39.00;36.00;;;;;;;;6488226;46;8940;-51
2023/04/06 02:57:24;;;;;;;;;51.75;45.00;;;;;;;;6488133;39;8873;-50
2023/04/06 03:03:27;;;;;;;;;45.50;40.75;;;;;;;;6487730;46;9094;-49
2023/04/06 03:09:31;;;;;;;;;43.75;41.75;;;;;;;;6487268;46;8945;-47
2023/04/06 03:15:34;;;;;;;;;35.25;34.25;;;;;;;;6488001;46;8916;-49
2023/04/06 03:21:47;;;;;;;;;47.50;43.75;;;;;;;;6487144;39;8905;-50
2023/04/06 03:27:51;;;;;;;;;41.75;39.00;;;;;;;;6487914;39;8915;-49
2023/04/06 03:33:55;;;;;;;;;54.25;46.25;;;;;;;;6487217;46;8858;-48
2023/04/06 03:40:03;;;;;;;;;47.50;44.00;;;;;;;;6488212;39;8837;-49
2023/04/06 03:46:05;;;;;;;;;54.50;46.25;;;;;;;;6487637;46;8877;-50
2023/04/06 03:52:08;;;;;;;;;53.25;45.50;;;;;;;;6488529;39;8935;-52
2023/04/06 03:58:10;;;;;;;;;46.00;42.00;;;;;;;;6488120;39;8853;-48
2023/04/06 04:04:14;;;;;;;;;56.50;47.75;;;;;;;;6471119;31;9057;-50
2023/04/06 04:10:16;;;;;;;;;45.25;43.75;;;;;;;;6490905;39;8922;-50
2023/04/06 04:16:18;;;;;;;;;52.50;45.75;;;;;;;;6490612;46;8931;-53
